KLNA/LNA METAR and TAF weather

Enter ICAO airport designator
Station Type Date Time Source
KLNA METAR 2021/01/20 22:35 UTC NOAA

KLNA 202235Z AUTO 36004KT 10SM CLR 22/14 A3020 RMK AO2 T02150137 PNO


Station Type Date Time Source
KLNA Decoded METAR 2021/01/20 22:35 UTC NOAA

Station name not available
Jan 20, 2021 - 05:35 PM EST / 2021.01.20 2235 UTC
Wind: from the N (360 degrees) at 5 MPH (4 KT):0
Visibility: 10 mile(s):0
Sky conditions: clear
Temperature: 70.7 F (21.5 C)
Dew Point: 56.7 F (13.7 C)
Relative Humidity: 61%
Pressure (altimeter): 30.2 in. Hg (1022 hPa)
ob: KLNA 202235Z AUTO 36004KT 10SM CLR 22/14 A3020 RMK AO2 T02150137 PNO
cycle: 22

Station Type Date Time Source
KLNA TAF UTC NOAA

Error!

Example: see airport list